Time;durP1;ratioP1;P1;durP2;ratioP2;P2;SDS_P1;SDS_P2;PMS_P1;PMS_P2;Temp;Humidity;BMP_temperature;BMP_pressure;BME280_temperature;BME280_humidity;BME280_pressure;Samples;Min_cycle;Max_cycle;Signal;HPM_P1;HPM_P2
2023/07/08 00:00:24;;;;;;;8.80;4.28;;;18.90;99.80;;;;;;5021809;28;20044;-88
2023/07/08 00:02:54;;;;;;;7.40;4.20;;;18.90;99.90;;;;;;5005864;28;20331;-88
2023/07/08 00:05:24;;;;;;;8.10;4.70;;;18.80;99.90;;;;;;5005653;28;20036;-89
2023/07/08 00:07:53;;;;;;;8.57;4.10;;;18.80;99.90;;;;;;5005705;28;20408;-88
2023/07/08 00:10:26;;;;;;;7.03;3.92;;;18.80;99.90;;;;;;5005331;28;20313;-88
2023/07/08 00:12:57;;;;;;;7.63;3.80;;;18.80;99.90;;;;;;5021485;28;20055;-88
2023/07/08 00:15:33;;;;;;;8.05;4.43;;;18.70;99.90;;;;;;5024884;28;20420;-88
2023/07/08 00:18:13;;;;;;;9.52;4.15;;;18.70;99.90;;;;;;5028728;28;20025;-88
2023/07/08 00:20:43;;;;;;;8.15;4.25;;;18.70;99.90;;;;;;5012153;28;20427;-88
2023/07/08 00:23:09;;;;;;;7.63;3.55;;;18.60;99.90;;;;;;5011817;28;20087;-88
2023/07/08 00:25:36;;;;;;;10.80;4.00;;;18.60;99.90;;;;;;5012087;28;20102;-88
2023/07/08 00:28:04;;;;;;;9.25;4.05;;;18.60;99.90;;;;;;5028092;28;20039;-90
2023/07/08 00:30:34;;;;;;;7.05;3.80;;;18.60;99.90;;;;;;5028625;28;20511;-90
2023/07/08 00:33:01;;;;;;;6.50;4.07;;;18.60;99.90;;;;;;5031474;28;20467;-88
2023/07/08 00:35:34;;;;;;;7.63;3.78;;;18.50;99.90;;;;;;5064140;28;20059;-88
2023/07/08 00:38:01;;;;;;;8.30;3.90;;;18.50;99.90;;;;;;5031733;28;20060;-88
2023/07/08 00:40:30;;;;;;;10.60;3.67;;;18.50;99.90;;;;;;5027695;28;20064;-88
2023/07/08 00:42:58;;;;;;;8.70;3.72;;;18.50;99.90;;;;;;5011524;28;20033;-88
2023/07/08 00:45:45;;;;;;;7.25;3.45;;;18.50;99.90;;;;;;5011695;28;20128;-88
2023/07/08 00:48:28;;;;;;;6.82;4.18;;;18.50;99.90;;;;;;5017949;28;20024;-90
2023/07/08 00:50:55;;;;;;;7.22;4.00;;;18.40;99.90;;;;;;5014276;28;20033;-88
2023/07/08 00:53:33;;;;;;;6.47;4.07;;;18.40;99.90;;;;;;5027320;28;20415;-88
2023/07/08 00:56:37;;;;;;;7.10;4.18;;;18.40;99.90;;;;;;5011738;28;20083;-89
2023/07/08 00:59:16;;;;;;;7.07;3.90;;;18.40;99.90;;;;;;5011633;28;20412;-89
2023/07/08 01:01:45;;;;;;;9.43;4.10;;;18.30;99.90;;;;;;5027998;28;20033;-87
2023/07/08 01:04:17;;;;;;;6.72;3.75;;;18.30;99.90;;;;;;5027807;28;20056;-87
2023/07/08 01:06:57;;;;;;;9.25;4.03;;;18.30;99.90;;;;;;5044131;28;20041;-87
2023/07/08 01:09:31;;;;;;;8.60;4.20;;;18.30;99.90;;;;;;5027911;28;20451;-86
2023/07/08 01:12:04;;;;;;;9.00;4.18;;;18.20;99.90;;;;;;5028204;28;20087;-87
2023/07/08 01:14:33;;;;;;;6.70;3.85;;;18.20;99.90;;;;;;5027545;28;20317;-87
2023/07/08 01:17:01;;;;;;;7.78;4.15;;;18.20;99.90;;;;;;5028208;28;20033;-87
2023/07/08 01:19:33;;;;;;;9.35;4.28;;;18.10;99.90;;;;;;5028176;28;20029;-87
2023/07/08 01:22:04;;;;;;;8.32;4.00;;;18.10;99.90;;;;;;5035964;28;20033;-88
2023/07/08 01:24:32;;;;;;;8.05;3.92;;;18.10;99.90;;;;;;5044304;28;20071;-88
2023/07/08 01:27:01;;;;;;;6.28;3.72;;;18.10;99.90;;;;;;5025401;28;20041;-87
2023/07/08 01:29:28;;;;;;;11.32;4.28;;;18.10;99.90;;;;;;5041079;28;20083;-88
2023/07/08 01:32:02;;;;;;;7.78;3.88;;;18.10;99.90;;;;;;5026784;28;20036;-87
2023/07/08 01:34:32;;;;;;;6.90;3.80;;;18.10;99.90;;;;;;5030407;28;20060;-88
2023/07/08 01:37:07;;;;;;;7.95;3.95;;;18.10;99.90;;;;;;5027911;28;20587;-88
2023/07/08 01:39:36;;;;;;;8.25;4.07;;;18.10;99.90;;;;;;5027838;28;20063;-87
2023/07/08 01:42:02;;;;;;;9.05;4.00;;;18.00;99.90;;;;;;5058650;28;20056;-87
2023/07/08 01:44:36;;;;;;;6.63;3.70;;;18.00;99.90;;;;;;5026711;28;20024;-87
2023/07/08 01:47:13;;;;;;;8.80;3.97;;;18.00;99.90;;;;;;5028059;28;20039;-88
2023/07/08 01:49:41;;;;;;;7.55;3.55;;;18.00;99.90;;;;;;5026088;28;20052;-88
2023/07/08 01:52:12;;;;;;;9.15;4.20;;;18.00;99.90;;;;;;5040912;28;20031;-90
2023/07/08 01:54:41;;;;;;;8.32;3.88;;;18.00;99.90;;;;;;5024994;28;20045;-88
2023/07/08 01:57:09;;;;;;;7.47;3.85;;;18.00;99.90;;;;;;5022431;28;20105;-87
2023/07/08 01:59:35;;;;;;;8.25;4.28;;;17.90;99.90;;;;;;5041007;28;20025;-87
2023/07/08 02:02:11;;;;;;;6.93;3.63;;;17.90;99.90;;;;;;5057031;28;20025;-87
2023/07/08 02:04:39;;;;;;;8.13;4.03;;;17.90;99.90;;;;;;5043954;28;20105;-87
2023/07/08 02:07:10;;;;;;;9.25;4.25;;;17.90;99.90;;;;;;5021261;28;20427;-87
2023/07/08 02:09:49;;;;;;;7.97;4.05;;;17.90;99.90;;;;;;5032594;28;20029;-87
2023/07/08 02:12:15;;;;;;;8.40;4.22;;;17.80;99.90;;;;;;5013775;28;20036;-88
2023/07/08 02:14:41;;;;;;;8.93;4.35;;;17.80;99.90;;;;;;5057352;28;20059;-88
2023/07/08 02:17:16;;;;;;;8.88;4.53;;;17.80;99.90;;;;;;5080420;28;20407;-87
2023/07/08 02:19:46;;;;;;;5.85;3.78;;;17.80;99.90;;;;;;5047207;28;20031;-88
2023/07/08 02:22:12;;;;;;;6.03;3.83;;;17.70;99.90;;;;;;5063516;28;20438;-92
2023/07/08 02:24:41;;;;;;;7.22;4.22;;;17.70;99.90;;;;;;5063808;28;20386;-88
2023/07/08 02:27:07;;;;;;;8.02;4.30;;;17.70;99.90;;;;;;5063532;28;20068;-90
2023/07/08 02:29:38;;;;;;;9.20;4.65;;;17.70;99.90;;;;;;5047148;28;20335;-87
2023/07/08 02:32:05;;;;;;;7.45;4.45;;;17.70;99.90;;;;;;5046865;28;20070;-87
2023/07/08 02:34:34;;;;;;;9.07;4.55;;;17.70;99.90;;;;;;5029923;28;20032;-87
2023/07/08 02:37:00;;;;;;;9.32;4.00;;;17.70;99.90;;;;;;5046957;28;20058;-87
2023/07/08 02:39:26;;;;;;;7.03;3.92;;;17.60;99.90;;;;;;5078305;28;20036;-89
2023/07/08 02:41:52;;;;;;;8.75;4.25;;;17.60;99.90;;;;;;5045921;28;20078;-87
2023/07/08 02:44:23;;;;;;;9.60;4.13;;;17.60;99.90;;;;;;5011101;28;20301;-87
2023/07/08 02:46:49;;;;;;;7.78;4.60;;;17.60;99.90;;;;;;5026385;28;20442;-86
2023/07/08 02:49:16;;;;;;;10.60;4.85;;;17.60;99.90;;;;;;5059427;28;20059;-88
2023/07/08 02:51:47;;;;;;;9.63;4.60;;;17.50;99.90;;;;;;5009978;28;20377;-87
2023/07/08 02:54:13;;;;;;;8.48;5.20;;;17.50;99.90;;;;;;5059404;28;20049;-87
2023/07/08 02:56:39;;;;;;;6.53;4.30;;;17.50;99.90;;;;;;5026147;28;20443;-87
2023/07/08 02:59:10;;;;;;;8.73;4.70;;;17.50;99.90;;;;;;5042716;28;20499;-87
2023/07/08 03:01:41;;;;;;;8.25;4.53;;;17.50;99.90;;;;;;5044211;28;20083;-86
2023/07/08 03:04:13;;;;;;;8.15;4.45;;;17.50;99.90;;;;;;5026013;28;20377;-87
2023/07/08 03:06:41;;;;;;;7.78;4.47;;;17.50;99.90;;;;;;5026368;28;20455;-87
2023/07/08 03:09:07;;;;;;;8.60;4.38;;;17.50;99.90;;;;;;5026029;28;20045;-87
2023/07/08 03:11:36;;;;;;;8.73;5.13;;;17.50;99.90;;;;;;5042178;28;20052;-88
2023/07/08 03:14:02;;;;;;;9.35;4.60;;;17.50;99.90;;;;;;5042315;28;20028;-87
2023/07/08 03:16:34;;;;;;;10.10;4.50;;;17.40;99.90;;;;;;5043041;28;20039;-87
2023/07/08 03:19:04;;;;;;;10.57;4.93;;;17.40;99.90;;;;;;5042465;28;20051;-87
2023/07/08 03:21:33;;;;;;;8.05;4.82;;;17.40;99.90;;;;;;5042559;28;20064;-87
2023/07/08 03:23:59;;;;;;;8.13;4.25;;;17.40;99.90;;;;;;5042299;28;20032;-88
2023/07/08 03:26:30;;;;;;;12.63;4.85;;;17.40;99.90;;;;;;5026385;28;20037;-87
2023/07/08 03:28:56;;;;;;;8.48;4.60;;;17.40;99.90;;;;;;5058861;28;20059;-87
2023/07/08 03:31:23;;;;;;;10.00;4.60;;;17.40;99.90;;;;;;5026129;28;20032;-87
2023/07/08 03:33:50;;;;;;;7.10;4.65;;;17.40;99.90;;;;;;5025718;28;20038;-87
2023/07/08 03:36:24;;;;;;;7.85;4.68;;;17.40;99.90;;;;;;5042251;28;20066;-87
2023/07/08 03:38:57;;;;;;;7.53;4.20;;;17.40;99.90;;;;;;5025784;28;20366;-87
2023/07/08 03:41:27;;;;;;;7.43;4.60;;;17.40;99.90;;;;;;5035742;28;20071;-87
2023/07/08 03:43:54;;;;;;;9.50;4.88;;;17.30;99.90;;;;;;5026013;28;20333;-87
2023/07/08 03:46:21;;;;;;;7.35;4.10;;;17.30;99.90;;;;;;5041835;28;20083;-89
2023/07/08 03:48:47;;;;;;;10.95;4.93;;;17.30;99.90;;;;;;5009777;28;20089;-87
2023/07/08 03:51:22;;;;;;;8.55;4.72;;;17.30;99.90;;;;;;5041678;28;20036;-87
2023/07/08 03:53:51;;;;;;;8.02;4.30;;;17.30;99.90;;;;;;5025407;28;20044;-87
2023/07/08 03:56:17;;;;;;;7.47;4.13;;;17.30;99.90;;;;;;5058723;28;20044;-87
2023/07/08 03:58:43;;;;;;;9.93;4.78;;;17.30;99.90;;;;;;5025293;28;20032;-87
2023/07/08 04:01:21;;;;;;;8.65;4.57;;;17.30;99.90;;;;;;5025353;28;20037;-87
2023/07/08 04:03:51;;;;;;;8.98;5.10;;;17.30;99.90;;;;;;5025219;28;20070;-87
2023/07/08 04:06:21;;;;;;;8.27;4.47;;;17.30;99.90;;;;;;5061807;28;20433;-87
2023/07/08 04:08:48;;;;;;;8.25;4.72;;;17.30;99.90;;;;;;5061708;28;20039;-87
2023/07/08 04:11:16;;;;;;;9.18;4.30;;;17.30;99.90;;;;;;5044963;28;20035;-88
2023/07/08 04:13:47;;;;;;;9.38;4.65;;;17.30;99.90;;;;;;5061540;28;20058;-87
2023/07/08 04:16:24;;;;;;;9.23;5.00;;;17.30;99.90;;;;;;5061200;28;20438;-87
2023/07/08 04:18:53;;;;;;;11.63;5.28;;;17.30;99.90;;;;;;5041606;28;20036;-87
2023/07/08 04:21:25;;;;;;;8.95;4.55;;;17.30;99.90;;;;;;5041764;28;20358;-87
2023/07/08 04:23:52;;;;;;;10.07;5.00;;;17.30;99.90;;;;;;5041463;28;20037;-87
2023/07/08 04:26:20;;;;;;;9.32;4.88;;;17.30;99.90;;;;;;5041451;28;20029;-87
2023/07/08 04:28:46;;;;;;;10.95;4.90;;;17.30;99.90;;;;;;5058172;28;20029;-87
2023/07/08 04:31:13;;;;;;;10.30;4.63;;;17.30;99.90;;;;;;5061230;28;20032;-87
2023/07/08 04:33:39;;;;;;;9.25;4.72;;;17.30;99.90;;;;;;5044468;28;20032;-87
2023/07/08 04:36:11;;;;;;;10.73;4.88;;;17.30;99.90;;;;;;5044802;28;20047;-87
2023/07/08 04:38:37;;;;;;;7.88;4.40;;;17.30;99.90;;;;;;5077947;28;20028;-86
2023/07/08 04:41:06;;;;;;;7.95;5.05;;;17.30;99.90;;;;;;5045501;28;20059;-87
2023/07/08 04:43:32;;;;;;;10.90;4.90;;;17.30;99.90;;;;;;5061268;28;20040;-87
2023/07/08 04:45:59;;;;;;;9.13;5.10;;;17.30;99.90;;;;;;5061030;28;20453;-88
2023/07/08 04:48:25;;;;;;;8.75;4.85;;;17.40;99.90;;;;;;5044701;28;20060;-88
2023/07/08 04:50:54;;;;;;;9.23;5.05;;;17.40;99.90;;;;;;5077677;28;20028;-88
2023/07/08 04:53:20;;;;;;;7.85;4.55;;;17.40;99.90;;;;;;5057412;28;20041;-88
2023/07/08 04:55:56;;;;;;;8.98;4.43;;;17.40;99.90;;;;;;5057466;28;20029;-88
2023/07/08 04:58:23;;;;;;;11.55;5.53;;;17.50;99.90;;;;;;5056288;28;20036;-88
2023/07/08 05:00:49;;;;;;;9.63;4.28;;;17.50;99.90;;;;;;5040944;28;20048;-87
2023/07/08 05:03:15;;;;;;;9.18;4.97;;;17.50;99.90;;;;;;5042592;28;20036;-88
2023/07/08 05:05:43;;;;;;;9.80;4.40;;;17.50;99.90;;;;;;5024777;28;20033;-87
2023/07/08 05:08:09;;;;;;;8.05;4.60;;;17.60;99.90;;;;;;5057903;28;20056;-87
2023/07/08 05:10:35;;;;;;;7.63;4.40;;;17.60;99.90;;;;;;5048802;28;20094;-88
2023/07/08 05:13:02;;;;;;;7.72;4.45;;;17.60;99.90;;;;;;5077867;28;20481;-88
2023/07/08 05:15:31;;;;;;;9.73;4.88;;;17.70;99.90;;;;;;5044635;28;20033;-88
2023/07/08 05:18:02;;;;;;;7.60;4.43;;;17.70;99.90;;;;;;5044943;28;20052;-88
2023/07/08 05:20:32;;;;;;;8.32;4.47;;;17.70;99.90;;;;;;5078418;28;20461;-88
2023/07/08 05:22:58;;;;;;;8.85;4.45;;;17.70;99.90;;;;;;5057032;28;20025;-88
2023/07/08 05:25:25;;;;;;;9.48;5.05;;;17.80;99.90;;;;;;5041271;28;20082;-87
2023/07/08 05:27:51;;;;;;;9.45;5.03;;;17.80;99.90;;;;;;5077439;28;20056;-88
2023/07/08 05:30:19;;;;;;;10.18;4.60;;;17.90;99.90;;;;;;5044774;28;20032;-88
2023/07/08 05:32:46;;;;;;;8.80;4.47;;;17.90;99.90;;;;;;5060806;28;20079;-88
2023/07/08 05:35:16;;;;;;;9.68;4.70;;;17.90;99.90;;;;;;5056903;28;20060;-88
2023/07/08 05:37:46;;;;;;;8.32;5.07;;;18.00;99.90;;;;;;5040082;28;20021;-88
2023/07/08 05:40:15;;;;;;;8.68;4.63;;;18.00;99.90;;;;;;5040139;28;20029;-87
2023/07/08 05:42:41;;;;;;;9.15;4.40;;;18.00;99.90;;;;;;5041384;28;20075;-88
2023/07/08 05:45:10;;;;;;;8.38;4.38;;;18.00;99.90;;;;;;5047586;28;20359;-88
2023/07/08 05:47:37;;;;;;;8.40;4.95;;;18.10;99.90;;;;;;5045482;28;20033;-88
2023/07/08 05:50:06;;;;;;;6.78;4.45;;;18.10;99.90;;;;;;5041245;28;20052;-88
2023/07/08 05:52:32;;;;;;;8.38;4.80;;;18.20;99.90;;;;;;5057999;28;20029;-88
2023/07/08 05:54:58;;;;;;;9.10;4.55;;;18.20;99.90;;;;;;5060119;28;20075;-87
2023/07/08 05:57:26;;;;;;;9.88;4.50;;;18.30;99.90;;;;;;5044598;28;20434;-89
2023/07/08 05:59:54;;;;;;;11.68;4.30;;;18.30;99.90;;;;;;5026824;28;20119;-89
2023/07/08 06:02:25;;;;;;;7.13;4.20;;;18.40;99.90;;;;;;5025616;28;20037;-88
2023/07/08 06:04:56;;;;;;;8.45;4.50;;;18.50;99.90;;;;;;5041606;28;20103;-89
2023/07/08 06:07:26;;;;;;;9.20;4.03;;;18.50;99.90;;;;;;5039745;28;20032;-89
2023/07/08 06:10:00;;;;;;;7.63;4.25;;;18.60;99.90;;;;;;5042910;28;20321;-88
2023/07/08 06:12:30;;;;;;;8.63;4.18;;;18.70;99.90;;;;;;5058046;28;20025;-90
2023/07/08 06:14:56;;;;;;;9.63;4.50;;;18.70;99.90;;;;;;5054605;28;20052;-88
2023/07/08 06:17:23;;;;;;;8.82;4.00;;;18.80;99.90;;;;;;5019877;28;20091;-91
2023/07/08 06:19:51;;;;;;;8.13;3.83;;;18.80;99.90;;;;;;5038087;28;20028;-88
2023/07/08 06:22:22;;;;;;;8.95;4.25;;;18.90;99.90;;;;;;5022677;28;20060;-90
2023/07/08 06:24:51;;;;;;;6.47;3.63;;;18.90;99.90;;;;;;5032862;28;20086;-90
2023/07/08 06:27:24;;;;;;;7.88;3.35;;;19.00;99.90;;;;;;5006460;28;20099;-88
2023/07/08 06:29:50;;;;;;;7.30;3.63;;;19.10;99.90;;;;;;5005098;28;20056;-88
2023/07/08 06:32:16;;;;;;;7.05;3.60;;;19.20;99.90;;;;;;5069495;28;20106;-88
2023/07/08 06:34:45;;;;;;;8.65;3.30;;;19.20;99.90;;;;;;5024064;28;20273;-88
2023/07/08 06:37:16;;;;;;;6.85;3.63;;;19.30;99.90;;;;;;5042047;28;20028;-88
2023/07/08 06:39:47;;;;;;;11.80;3.85;;;19.40;99.90;;;;;;5037317;28;20028;-89
2023/07/08 06:42:13;;;;;;;9.35;3.28;;;19.50;99.90;;;;;;5013326;28;20033;-88
2023/07/08 06:44:50;;;;;;;6.57;3.40;;;19.50;99.90;;;;;;5039128;28;20162;-88
2023/07/08 06:47:23;;;;;;;5.15;3.05;;;19.70;99.90;;;;;;5038615;28;20486;-88
2023/07/08 06:49:49;;;;;;;6.05;3.42;;;19.70;99.90;;;;;;5004507;28;20416;-87
2023/07/08 06:52:15;;;;;;;7.20;2.83;;;19.80;99.90;;;;;;5037726;28;20424;-86
2023/07/08 06:54:41;;;;;;;5.80;3.00;;;19.90;99.90;;;;;;5029157;28;20053;-87
2023/07/08 06:57:07;;;;;;;7.38;3.10;;;20.00;99.90;;;;;;5048996;28;20033;-89
2023/07/08 06:59:35;;;;;;;5.82;2.90;;;20.10;99.90;;;;;;5002483;28;20029;-89
2023/07/08 07:02:03;;;;;;;8.52;2.90;;;20.20;99.90;;;;;;5001604;28;20037;-89
2023/07/08 07:04:32;;;;;;;6.72;2.95;;;20.30;99.90;;;;;;5001911;28;20106;-90
2023/07/08 07:06:58;;;;;;;6.95;3.08;;;20.40;99.90;;;;;;5001176;28;20531;-87
2023/07/08 07:09:24;;;;;;;7.80;3.22;;;20.50;99.90;;;;;;5000959;28;20037;-88
2023/07/08 07:11:54;;;;;;;7.13;3.10;;;20.60;99.90;;;;;;5034043;28;20036;-88
2023/07/08 07:14:28;;;;;;;5.63;2.47;;;20.60;99.90;;;;;;5018502;28;20041;-88
2023/07/08 07:16:55;;;;;;;6.82;3.30;;;20.80;99.90;;;;;;4998999;28;20335;-86
2023/07/08 07:19:21;;;;;;;5.75;2.88;;;20.90;99.90;;;;;;5024176;28;20025;-90
2023/07/08 07:21:51;;;;;;;7.80;3.53;;;21.00;99.90;;;;;;5020329;28;20032;-89
2023/07/08 07:24:18;;;;;;;8.82;3.15;;;21.10;99.90;;;;;;5036347;28;20037;-88
2023/07/08 07:26:51;;;;;;;11.52;3.70;;;21.20;99.90;;;;;;5048758;28;20052;-88
2023/07/08 07:29:23;;;;;;;6.03;2.92;;;21.30;99.90;;;;;;5002622;28;20056;-87
2023/07/08 07:31:55;;;;;;;7.88;3.03;;;21.40;99.90;;;;;;5032036;28;20131;-88
2023/07/08 07:34:27;;;;;;;6.82;2.63;;;21.50;99.90;;;;;;5005980;28;20073;-88
2023/07/08 07:36:56;;;;;;;7.53;3.30;;;21.60;99.90;;;;;;5038932;28;20350;-88
2023/07/08 07:39:28;;;;;;;5.57;2.83;;;21.70;99.90;;;;;;5006828;28;20087;-88
2023/07/08 07:41:57;;;;;;;9.05;2.85;;;21.80;99.90;;;;;;4996770;28;20031;-88
2023/07/08 07:44:28;;;;;;;6.10;3.03;;;21.90;99.90;;;;;;5021134;28;20030;-89
2023/07/08 07:46:54;;;;;;;7.72;3.08;;;22.00;99.90;;;;;;5018277;28;20032;-87
2023/07/08 07:49:21;;;;;;;6.45;2.78;;;22.10;99.90;;;;;;5033715;28;20442;-89
2023/07/08 07:51:48;;;;;;;6.82;2.80;;;22.20;99.90;;;;;;5019568;28;20147;-89
2023/07/08 07:54:19;;;;;;;5.95;2.80;;;22.30;99.90;;;;;;4995021;28;20450;-89
2023/07/08 07:56:45;;;;;;;6.28;2.95;;;22.40;99.90;;;;;;5003826;28;20033;-88
2023/07/08 07:59:13;;;;;;;7.80;2.70;;;22.50;99.90;;;;;;4999270;28;20030;-88
2023/07/08 08:01:44;;;;;;;5.90;2.80;;;22.60;99.70;;;;;;5012588;28;20033;-88
2023/07/08 08:04:13;;;;;;;6.30;2.95;;;22.70;99.30;;;;;;4989762;28;20404;-88
2023/07/08 08:06:44;;;;;;;4.75;2.70;;;22.80;99.40;;;;;;4994950;28;20038;-88
2023/07/08 08:09:11;;;;;;;7.00;3.03;;;22.90;99.50;;;;;;5003154;28;20319;-88
2023/07/08 08:11:37;;;;;;;6.43;3.00;;;23.00;99.30;;;;;;5021941;28;20033;-87
2023/07/08 08:14:04;;;;;;;6.95;2.83;;;23.10;99.30;;;;;;5005610;28;20033;-87
2023/07/08 08:16:30;;;;;;;8.20;2.95;;;23.20;99.00;;;;;;5005240;28;20052;-88
2023/07/08 08:18:59;;;;;;;5.18;2.58;;;23.30;98.90;;;;;;5002740;28;20029;-87
2023/07/08 08:21:25;;;;;;;6.18;3.17;;;23.50;98.70;;;;;;5002454;28;20029;-87
2023/07/08 08:23:51;;;;;;;7.00;3.10;;;23.60;98.30;;;;;;5019287;28;20037;-87
2023/07/08 08:26:17;;;;;;;9.60;2.90;;;23.70;98.40;;;;;;5019775;28;20092;-87
2023/07/08 08:28:45;;;;;;;6.97;2.47;;;23.80;98.50;;;;;;4987709;28;20041;-89
2023/07/08 08:31:11;;;;;;;5.30;2.83;;;23.90;98.20;;;;;;5039377;28;20432;-86
2023/07/08 08:33:39;;;;;;;7.00;3.53;;;23.90;98.00;;;;;;5008402;28;20041;-87
2023/07/08 08:36:05;;;;;;;6.30;3.00;;;24.00;97.90;;;;;;5039781;28;20025;-87
2023/07/08 08:38:31;;;;;;;7.53;2.60;;;24.10;97.90;;;;;;5007769;28;20033;-88
2023/07/08 08:41:09;;;;;;;6.10;2.72;;;24.10;98.00;;;;;;4997933;28;20025;-88
2023/07/08 08:43:40;;;;;;;6.03;2.85;;;24.30;97.70;;;;;;5006032;28;20045;-87
2023/07/08 08:46:21;;;;;;;7.65;3.20;;;24.40;97.40;;;;;;4989232;28;20095;-88
2023/07/08 08:48:53;;;;;;;5.68;2.60;;;24.50;97.60;;;;;;4989315;28;20320;-88
2023/07/08 08:51:23;;;;;;;8.48;2.72;;;24.70;97.20;;;;;;5005465;28;20413;-88
2023/07/08 08:53:52;;;;;;;7.00;3.03;;;24.80;97.40;;;;;;4999082;28;20333;-88
2023/07/08 08:56:45;;;;;;;9.70;3.08;;;24.90;97.50;;;;;;5024927;28;20029;-88
2023/07/08 08:59:23;;;;;;;6.22;2.95;;;25.10;97.40;;;;;;5042369;28;20037;-88
2023/07/08 09:01:50;;;;;;;6.57;2.60;;;25.30;97.00;;;;;;5006950;28;20037;-89
2023/07/08 09:04:32;;;;;;;4.50;2.58;;;25.40;96.70;;;;;;4993654;28;20039;-88
2023/07/08 09:07:12;;;;;;;6.20;2.70;;;25.40;96.50;;;;;;5026524;28;20122;-87
2023/07/08 09:09:51;;;;;;;9.55;2.85;;;25.50;96.20;;;;;;5038143;28;20125;-89
2023/07/08 09:12:26;;;;;;;7.82;2.65;;;25.60;96.00;;;;;;5008103;28;20029;-88
2023/07/08 09:14:56;;;;;;;5.93;2.90;;;25.70;95.90;;;;;;5007332;28;20033;-87
2023/07/08 09:17:34;;;;;;;5.72;2.70;;;25.70;95.80;;;;;;5007987;28;20048;-88
2023/07/08 09:20:23;;;;;;;7.13;2.78;;;25.80;95.60;;;;;;5011646;28;20401;-88
2023/07/08 09:23:07;;;;;;;5.55;3.10;;;26.00;95.40;;;;;;5027875;28;20033;-87
2023/07/08 09:25:47;;;;;;;8.07;2.83;;;26.00;95.10;;;;;;5027409;28;20037;-87
2023/07/08 09:28:24;;;;;;;8.35;2.65;;;26.10;95.30;;;;;;5028400;28;20040;-88
2023/07/08 09:30:56;;;;;;;6.65;2.72;;;26.20;95.30;;;;;;5033382;28;20439;-92
2023/07/08 09:33:50;;;;;;;5.50;2.47;;;26.30;95.10;;;;;;5031773;28;20037;-87
2023/07/08 09:36:25;;;;;;;6.57;2.88;;;26.40;95.10;;;;;;5045300;28;20029;-88
2023/07/08 09:38:54;;;;;;;7.38;3.10;;;26.50;95.20;;;;;;5027086;28;20033;-88
2023/07/08 09:41:35;;;;;;;5.63;2.97;;;26.60;94.70;;;;;;5026323;28;20075;-88
2023/07/08 09:44:13;;;;;;;7.20;3.28;;;26.80;94.70;;;;;;5027846;28;20324;-88
2023/07/08 09:46:40;;;;;;;10.73;3.30;;;26.90;95.20;;;;;;5061994;28;20029;-88
2023/07/08 09:49:22;;;;;;;4.93;3.13;;;27.00;94.40;;;;;;5026827;28;20412;-88
2023/07/08 09:51:53;;;;;;;6.75;2.78;;;27.20;94.50;;;;;;5008605;28;20498;-90
2023/07/08 09:54:32;;;;;;;6.28;2.90;;;27.30;94.30;;;;;;5012746;28;20049;-89
2023/07/08 09:57:11;;;;;;;6.57;3.10;;;27.40;94.30;;;;;;5028366;28;20128;-90
2023/07/08 09:59:48;;;;;;;7.97;3.03;;;27.50;93.70;;;;;;5012862;28;20424;-90
2023/07/08 10:02:30;;;;;;;6.43;3.03;;;27.60;93.40;;;;;;5027104;28;20021;-88
2023/07/08 10:05:00;;;;;;;4.75;2.40;;;27.70;93.80;;;;;;5026053;28;20061;-89
2023/07/08 10:07:36;;;;;;;6.57;2.65;;;27.80;93.70;;;;;;5007338;28;20037;-89
2023/07/08 10:10:09;;;;;;;4.82;2.58;;;27.90;93.60;;;;;;5026113;28;20087;-88
2023/07/08 10:13:06;;;;;;;6.38;3.25;;;28.00;93.40;;;;;;5006207;28;20037;-89
2023/07/08 10:15:52;;;;;;;5.88;2.72;;;27.90;93.20;;;;;;5037321;28;20078;-88
2023/07/08 10:18:37;;;;;;;9.07;2.97;;;28.10;93.20;;;;;;5009095;28;20793;-88
2023/07/08 10:21:11;;;;;;;8.23;2.90;;;28.10;93.50;;;;;;5024478;28;20163;-89
2023/07/08 10:23:57;;;;;;;8.70;2.80;;;28.20;93.80;;;;;;5008411;28;20132;-87
2023/07/08 10:26:30;;;;;;;7.07;3.22;;;28.30;93.50;;;;;;5004613;28;20036;-88
2023/07/08 10:29:22;;;;;;;8.07;5.55;;;28.30;93.30;;;;;;5021390;28;20074;-90
2023/07/08 10:32:09;;;;;;;98.90;90.75;;;28.30;92.80;;;;;;5005475;28;20033;-90
2023/07/08 10:35:10;;;;;;;60.05;54.42;;;28.30;92.70;;;;;;5006380;28;20119;-90
2023/07/08 10:38:05;;;;;;;34.00;30.92;;;28.40;92.60;;;;;;5008915;28;20025;-88
2023/07/08 10:44:14;;;;;;;5.82;3.28;;;28.50;92.60;;;;;;5030764;28;20043;-89
2023/07/08 10:47:32;;;;;;;8.57;3.42;;;28.60;93.00;;;;;;4997137;28;20037;-89
2023/07/08 10:50:26;;;;;;;27.80;25.60;;;28.70;93.10;;;;;;4986586;28;20063;-90
2023/07/08 10:53:15;;;;;;;34.57;31.43;;;28.80;92.90;;;;;;5003584;28;20124;-88
2023/07/08 10:56:13;;;;;;;36.25;32.80;;;28.80;92.70;;;;;;5008653;28;20691;-88
2023/07/08 10:59:37;;;;;;;;;;;;;;;;;;;;;
2023/07/08 11:03:00;;;;;;;10.50;6.93;;;29.20;92.50;;;;;;5056659;28;20029;-89
2023/07/08 11:05:50;;;;;;;10.98;5.68;;;29.30;92.10;;;;;;5035559;28;20040;-88
2023/07/08 11:08:55;;;;;;;10.27;6.97;;;29.30;91.90;;;;;;5052661;28;20035;-88
2023/07/08 11:11:42;;;;;;;9.75;4.65;;;29.40;91.60;;;;;;5054497;28;20024;-88
2023/07/08 11:14:33;;;;;;;6.78;4.15;;;29.40;91.90;;;;;;5076046;28;20056;-88
2023/07/08 11:17:26;;;;;;;154.48;138.15;;;29.50;91.50;;;;;;5057230;28;20036;-89
2023/07/08 11:20:38;;;;;;;19.90;17.88;;;29.50;91.70;;;;;;5078085;28;20081;-89
2023/07/08 11:23:44;;;;;;;24.02;20.75;;;29.60;92.00;;;;;;5020552;28;20060;-88
2023/07/08 11:26:36;;;;;;;12.85;8.15;;;29.80;91.90;;;;;;5096575;28;20194;-89
2023/07/08 11:29:06;;;;;;;8.52;4.25;;;29.90;91.90;;;;;;5078088;28;20028;-91
2023/07/08 11:31:40;;;;;;;12.32;9.27;;;29.90;91.20;;;;;;5060995;28;20028;-89
2023/07/08 11:34:14;;;;;;;14.07;12.68;;;30.00;91.10;;;;;;5061590;28;20032;-89
2023/07/08 11:36:44;;;;;;;17.60;12.77;;;30.10;91.20;;;;;;5061602;28;20020;-89
2023/07/08 11:39:38;;;;;;;15.07;11.48;;;30.10;91.40;;;;;;5062081;28;20028;-90
2023/07/08 11:42:15;;;;;;;9.73;4.25;;;30.20;91.30;;;;;;5061519;28;20027;-89
2023/07/08 11:44:55;;;;;;;8.70;3.80;;;30.20;91.00;;;;;;5078880;28;20403;-90
2023/07/08 11:47:47;;;;;;;6.82;3.55;;;30.20;90.90;;;;;;5039713;28;20118;-90
2023/07/08 11:50:32;;;;;;;5.25;3.15;;;30.30;90.90;;;;;;5057070;28;20107;-89
2023/07/08 11:53:01;;;;;;;8.55;3.25;;;30.30;91.40;;;;;;5025373;28;20029;-90
2023/07/08 11:55:58;;;;;;;5.93;3.15;;;30.50;91.50;;;;;;5025805;28;20085;-89
2023/07/08 11:58:29;;;;;;;8.95;3.42;;;30.60;91.10;;;;;;5041320;28;20024;-87
2023/07/08 12:01:07;;;;;;;6.90;3.50;;;30.70;91.10;;;;;;5058565;28;20047;-88
2023/07/08 12:03:50;;;;;;;5.65;3.00;;;30.80;91.10;;;;;;5058221;28;20086;-90
2023/07/08 12:06:45;;;;;;;6.20;3.20;;;31.00;91.10;;;;;;5058003;28;20036;-89
2023/07/08 12:09:30;;;;;;;5.28;3.10;;;31.00;90.90;;;;;;5057335;28;20036;-89
2023/07/08 12:12:07;;;;;;;5.50;3.10;;;31.10;90.30;;;;;;5025390;28;20056;-88
2023/07/08 12:14:41;;;;;;;8.98;3.42;;;31.10;90.90;;;;;;5042044;28;20066;-89
2023/07/08 12:17:19;;;;;;;6.32;3.00;;;31.20;91.00;;;;;;5028826;28;20065;-89
2023/07/08 12:19:53;;;;;;;7.53;3.40;;;31.40;90.70;;;;;;5041717;28;20506;-88
2023/07/08 12:22:23;;;;;;;6.93;3.30;;;31.30;90.00;;;;;;5025792;28;20025;-88
2023/07/08 12:24:55;;;;;;;7.47;3.45;;;31.40;89.20;;;;;;5025882;28;20036;-88
2023/07/08 12:27:29;;;;;;;6.88;3.42;;;31.50;88.90;;;;;;5026600;28;20047;-88
2023/07/08 12:30:03;;;;;;;6.30;3.38;;;31.50;87.90;;;;;;5025840;28;20051;-88
2023/07/08 12:32:39;;;;;;;6.13;3.50;;;31.60;87.80;;;;;;5010593;28;20166;-87
2023/07/08 12:35:31;;;;;;;6.78;3.35;;;31.60;87.70;;;;;;5058458;28;20407;-88
2023/07/08 12:38:37;;;;;;;5.95;3.13;;;31.80;88.00;;;;;;5031453;28;20032;-89
2023/07/08 12:41:28;;;;;;;7.63;3.17;;;31.90;88.20;;;;;;5036056;28;20111;-90
2023/07/08 12:44:00;;;;;;;8.88;3.65;;;32.00;86.60;;;;;;5057146;28;20027;-89
2023/07/08 12:46:57;;;;;;;7.68;3.42;;;32.00;86.20;;;;;;5034260;28;20043;-89
2023/07/08 12:49:27;;;;;;;8.02;3.67;;;32.00;86.10;;;;;;5025614;28;20033;-89
2023/07/08 12:52:03;;;;;;;9.50;3.35;;;32.10;85.70;;;;;;5059010;28;20050;-88
2023/07/08 12:54:30;;;;;;;6.78;3.40;;;32.20;85.20;;;;;;5024709;28;20053;-89
2023/07/08 12:57:03;;;;;;;7.68;3.00;;;32.20;85.50;;;;;;5041366;28;20032;-88
2023/07/08 12:59:32;;;;;;;7.28;3.58;;;32.20;85.00;;;;;;5041917;28;20055;-89
2023/07/08 13:02:17;;;;;;;7.57;3.50;;;32.10;84.90;;;;;;5043462;28;20043;-89
2023/07/08 13:05:06;;;;;;;;;;;32.10;85.90;;;;;;5058769;28;20025;-89
2023/07/08 13:07:38;;;;;;;6.72;3.30;;;32.00;85.30;;;;;;5025108;28;19908;-89
2023/07/08 13:10:26;;;;;;;;;;;;;;;;;;;;;
2023/07/08 13:13:00;;;;;;;6.60;4.10;;;32.20;84.60;;;;;;5058285;28;20036;-88
2023/07/08 13:15:42;;;;;;;10.65;3.80;;;32.30;84.40;;;;;;5025958;28;20127;-89
2023/07/08 13:18:41;;;;;;;7.55;3.35;;;32.40;83.90;;;;;;5041531;28;20060;-88
2023/07/08 13:21:19;;;;;;;4.53;3.20;;;32.40;83.70;;;;;;5013238;28;20039;-88
2023/07/08 13:23:46;;;;;;;5.70;3.30;;;32.40;84.30;;;;;;5043904;28;20465;-89